Time;durP1;ratioP1;P1;durP2;ratioP2;P2;SDS_P1;SDS_P2;PMS_P1;PMS_P2;Temp;Humidity;BMP_temperature;BMP_pressure;BME280_temperature;BME280_humidity;BME280_pressure;Samples;Min_cycle;Max_cycle;Signal;HPM_P1;HPM_P2
2021/11/07 00:04:47;;;;;;;;;;;6.30;82.50;;;;;;20825800;28;75983;-79
2021/11/07 00:14:51;;;;;;;;;;;6.30;83.70;;;;;;20824637;28;75723;-79
2021/11/07 00:25:02;;;;;;;;;;;6.20;84.30;;;;;;20857632;27;76630;-79
2021/11/07 00:55:48;;;;;;;;;;;5.90;84.10;;;;;;20837328;28;77228;-78
2021/11/07 01:05:54;;;;;;;;;;;5.90;84.30;;;;;;20837789;28;75023;-79
2021/11/07 01:15:57;;;;;;;;;;;5.90;84.40;;;;;;20835011;28;75981;-78
2021/11/07 01:26:11;;;;;;;;;;;5.90;85.40;;;;;;20835695;28;76999;-78
2021/11/07 01:36:30;;;;;;;;;;;5.90;84.70;;;;;;20835312;28;76156;-79
2021/11/07 01:46:34;;;;;;;;;;;6.00;84.30;;;;;;20833321;28;76714;-79
2021/11/07 01:56:37;;;;;;;;;;;5.90;83.70;;;;;;20831654;28;75833;-78
2021/11/07 02:06:43;;;;;;;;;;;5.80;84.00;;;;;;20832108;28;75845;-78
2021/11/07 02:16:47;;;;;;;;;;;5.70;84.00;;;;;;20832411;28;75997;-79
2021/11/07 02:26:57;;;;;;;;;;;5.70;84.60;;;;;;20831127;28;77380;-79
2021/11/07 02:37:01;;;;;;;;;;;5.60;84.90;;;;;;20831009;28;76635;-79
2021/11/07 02:47:07;;;;;;;;;;;5.60;85.00;;;;;;20829220;28;76883;-79
2021/11/07 02:57:26;;;;;;;;;;;5.60;84.80;;;;;;20829483;28;76785;-79
2021/11/07 03:07:33;;;;;;;;;;;5.40;84.90;;;;;;20828503;28;75640;-79
2021/11/07 03:17:42;;;;;;;;;;;5.30;84.80;;;;;;20827190;28;76938;-79
2021/11/07 03:28:07;;;;;;;;;;;5.10;84.10;;;;;;20827758;28;77472;-79
2021/11/07 03:38:28;;;;;;;;;;;5.10;84.70;;;;;;20827135;28;77848;-79
2021/11/07 03:48:46;;;;;;;;;;;4.90;84.90;;;;;;20826695;28;77102;-80
2021/11/07 03:58:53;;;;;;;;;;;4.70;84.30;;;;;;20825743;28;76701;-79
2021/11/07 04:09:00;;;;;;;;;;;4.60;84.60;;;;;;20824567;28;77026;-78
2021/11/07 04:19:10;;;;;;;;;;;4.70;83.50;;;;;;20824831;28;75825;-79
2021/11/07 04:29:17;;;;;;;;;;;4.60;83.50;;;;;;20854798;27;76736;-79
2021/11/07 04:39:33;;;;;;;;;;;4.60;84.60;;;;;;20822627;28;75887;-79
2021/11/07 04:49:54;;;;;;;;;;;4.50;84.50;;;;;;20824222;28;77679;-80
2021/11/07 05:00:17;;;;;;;;;;;4.60;85.20;;;;;;20820886;28;76572;-79
2021/11/07 05:10:30;;;;;;;;;;;4.60;84.70;;;;;;20821689;28;75662;-79
2021/11/07 05:20:40;;;;;;;;;;;4.40;85.00;;;;;;20819505;28;75910;-80
2021/11/07 05:30:52;;;;;;;;;;;4.20;85.40;;;;;;20823223;28;76811;-80
2021/11/07 05:40:59;;;;;;;;;;;4.20;85.70;;;;;;20834886;28;78239;-79
2021/11/07 05:51:02;;;;;;;;;;;4.10;85.60;;;;;;20832970;28;75653;-79
2021/11/07 06:01:06;;;;;;;;;;;4.00;85.20;;;;;;20834456;28;75448;-79
2021/11/07 06:11:19;;;;;;;;;;;4.00;85.90;;;;;;20831511;28;75469;-79
2021/11/07 06:21:22;;;;;;;;;;;4.10;86.00;;;;;;20831091;28;76007;-79
2021/11/07 06:31:26;;;;;;;;;;;4.00;85.40;;;;;;20832147;28;77266;-79
2021/11/07 06:41:32;;;;;;;;;;;4.00;85.70;;;;;;20829913;28;76881;-79
2021/11/07 06:51:38;;;;;;;;;;;3.90;85.30;;;;;;20830632;28;76866;-79
2021/11/07 07:01:42;;;;;;;;;;;3.90;85.40;;;;;;20828104;28;75744;-79
2021/11/07 07:11:48;;;;;;;;;;;4.00;85.40;;;;;;20829476;28;74520;-78
2021/11/07 07:32:23;;;;;;;;;;;4.70;85.40;;;;;;20831829;28;76768;-69
2021/11/07 07:42:30;;;;;;;;;;;4.90;83.60;;;;;;20828456;28;76737;-65
2021/11/07 07:52:32;;;;;;;;;;;4.90;84.20;;;;;;20827330;28;75388;-66
2021/11/07 08:02:36;;;;;;;;;;;5.40;82.80;;;;;;20825922;28;74608;-68
2021/11/07 08:12:39;;;;;;;;;;;5.50;83.60;;;;;;20825720;28;75426;-72
2021/11/07 08:22:42;;;;;;;;;;;6.10;83.90;;;;;;20828314;28;76521;-71
2021/11/07 08:32:46;;;;;;;;;;;6.60;82.60;;;;;;20824797;28;75677;-73
2021/11/07 08:42:55;;;;;;;;;;;6.90;81.70;;;;;;20823898;28;76771;-80
2021/11/07 09:03:28;;;;;;;;;;;7.60;81.10;;;;;;20823282;28;77053;-71
2021/11/07 09:13:30;;;;;;;;;;;8.20;80.00;;;;;;20839650;28;77045;-78
2021/11/07 09:54:00;;;;;;;;;;;11.30;73.80;;;;;;20834836;28;74859;-78
2021/11/07 10:04:03;;;;;;;;;;;11.30;72.60;;;;;;20834439;28;76935;-67
2021/11/07 10:14:14;;;;;;;;;;;12.70;73.20;;;;;;20833499;28;75326;-77
2021/11/07 10:24:20;;;;;;;;;;;20.40;53.40;;;;;;20831979;28;75616;-73
2021/11/07 10:54:42;;;;;;;;;;;30.50;34.30;;;;;;20830504;28;74710;-79
2021/11/07 11:05:04;;;;;;;;;;;31.30;35.90;;;;;;20829171;28;75607;-66
2021/11/07 11:15:10;;;;;;;;;;;25.20;42.00;;;;;;20829752;28;75518;-73
2021/11/07 11:35:42;;;;;;;;;;;18.90;58.00;;;;;;20828307;28;74762;-80
2021/11/07 11:45:53;;;;;;;;;;;18.40;56.70;;;;;;20826829;28;75498;-81
2021/11/07 11:56:12;;;;;;;;;;;24.10;53.60;;;;;;20827145;28;75750;-80
2021/11/07 12:06:23;;;;;;;;;;;23.90;40.30;;;;;;20827099;28;76553;-74
2021/11/07 12:16:48;;;;;;;;;;;21.90;54.90;;;;;;20826441;28;75354;-70
2021/11/07 12:26:51;;;;;;;;;;;24.60;48.80;;;;;;20825973;28;76984;-72
2021/11/07 12:47:09;;;;;;;;;;;22.20;55.30;;;;;;20823897;28;75430;-73
2021/11/07 12:57:14;;;;;;;;;;;23.80;49.00;;;;;;20822463;28;75740;-67
2021/11/07 13:07:20;;;;;;;;;;;21.50;50.40;;;;;;20822359;28;76609;-69
2021/11/07 13:17:39;;;;;;;;;;;22.00;55.50;;;;;;20821663;28;76833;-73
2021/11/07 13:27:49;;;;;;;;;;;23.00;53.40;;;;;;20822469;28;75478;-68
2021/11/07 13:38:03;;;;;;;;;;;23.60;55.30;;;;;;20819964;28;75618;-77
2021/11/07 13:48:14;;;;;;;;;;;26.40;48.30;;;;;;20823499;28;75621;-76
2021/11/07 13:58:20;;;;;;;;;;;26.10;44.40;;;;;;20832959;28;76591;-66
2021/11/07 14:08:23;;;;;;;;;;;24.80;40.50;;;;;;20835939;28;75875;-70
2021/11/07 14:18:28;;;;;;;;;;;29.10;50.50;;;;;;20834094;28;76689;-72
2021/11/07 14:28:40;;;;;;;;;;;27.60;52.80;;;;;;20832899;28;76528;-68
2021/11/07 14:38:45;;;;;;;;;;;30.50;51.90;;;;;;20832183;28;75486;-76
2021/11/07 14:59:04;;;;;;;;;;;21.00;52.50;;;;;;20829165;28;75700;-75
2021/11/07 15:09:12;;;;;;;;;;;18.80;63.90;;;;;;20828264;28;77292;-64
2021/11/07 15:19:28;;;;;;;;;;;17.70;65.30;;;;;;20830830;28;75685;-65
2021/11/07 15:29:36;;;;;;;;;;;17.00;64.40;;;;;;20829445;28;76736;-71
2021/11/07 15:39:47;;;;;;;;;;;16.40;67.20;;;;;;20828365;28;75456;-71
2021/11/07 16:00:20;;;;;;;;;;;15.70;68.20;;;;;;20827562;28;77170;-65
2021/11/07 16:10:31;;;;;;;;;;;15.40;69.30;;;;;;20826781;28;74958;-76
2021/11/07 16:20:33;;;;;;;;;;;14.90;69.50;;;;;;20825706;28;76422;-63
2021/11/07 16:30:35;;;;;;;;;;;14.60;68.50;;;;;;20824855;28;76599;-66
2021/11/07 16:40:49;;;;;;;;;;;14.40;67.00;;;;;;20824252;28;75680;-64
2021/11/07 16:50:57;;;;;;;;;;;14.10;67.90;;;;;;20823621;28;75441;-66
2021/11/07 17:01:00;;;;;;;;;;;13.80;70.90;;;;;;20823773;28;76578;-66
2021/11/07 17:11:07;;;;;;;;;;;13.50;69.10;;;;;;20822950;28;76505;-65
2021/11/07 17:31:37;;;;;;;;;;;12.90;72.90;;;;;;20831717;28;75550;-66
2021/11/07 18:02:11;;;;;;;;;;;11.80;75.30;;;;;;20833812;28;75053;-66
2021/11/07 18:12:16;;;;;;;;;;;11.60;76.40;;;;;;20832013;28;75420;-66
2021/11/07 18:32:27;;;;;;;;;;;11.20;78.30;;;;;;20831952;28;77106;-65
2021/11/07 18:42:29;;;;;;;;;;;10.90;78.70;;;;;;20832308;28;74715;-66
2021/11/07 18:52:30;;;;;;;;;;;10.90;79.50;;;;;;20829889;28;75617;-65
2021/11/07 19:02:41;;;;;;;;;;;10.70;80.10;;;;;;20830396;28;75807;-66
2021/11/07 19:12:44;;;;;;;;;;;10.50;80.60;;;;;;20830178;28;76902;-65
2021/11/07 19:22:45;;;;;;;;;;;10.40;81.20;;;;;;20828222;28;76886;-66
2021/11/07 19:32:50;;;;;;;;;;;10.40;81.00;;;;;;20829412;28;75679;-66
2021/11/07 19:42:53;;;;;;;;;;;10.30;81.30;;;;;;20826826;28;76082;-66
2021/11/07 19:52:55;;;;;;;;;;;10.20;81.50;;;;;;20826899;28;74739;-66
2021/11/07 20:13:07;;;;;;;;;;;9.90;82.20;;;;;;20827215;28;74682;-65
2021/11/07 20:23:12;;;;;;;;;;;9.80;82.50;;;;;;20826113;28;75635;-65
2021/11/07 20:33:16;;;;;;;;;;;9.70;82.80;;;;;;20826635;28;76996;-65
2021/11/07 20:43:28;;;;;;;;;;;9.80;82.20;;;;;;20824994;28;76683;-65
2021/11/07 21:13:50;;;;;;;;;;;9.30;82.30;;;;;;20837829;28;75457;-65
2021/11/07 21:44:02;;;;;;;;;;;9.00;82.50;;;;;;20836402;28;75504;-65
2021/11/07 21:54:04;;;;;;;;;;;8.90;83.40;;;;;;20834853;28;75641;-65
2021/11/07 22:04:05;;;;;;;;;;;8.70;83.60;;;;;;20831516;28;75738;-65
2021/11/07 22:14:09;;;;;;;;;;;8.60;84.10;;;;;;20828139;28;75391;-66
2021/11/07 22:24:13;;;;;;;;;;;8.50;84.50;;;;;;20827357;28;75669;-66
2021/11/07 22:34:22;;;;;;;;;;;8.30;83.40;;;;;;20826820;28;75632;-66
2021/11/07 22:44:25;;;;;;;;;;;8.10;83.10;;;;;;20827152;28;76693;-66
2021/11/07 23:04:50;;;;;;;;;;;7.80;80.60;;;;;;20778391;28;1438131;-65
2021/11/07 23:14:57;;;;;;;;;;;7.60;81.70;;;;;;20830106;28;76891;-66
2021/11/07 23:24:59;;;;;;;;;;;7.50;83.20;;;;;;20827225;28;76770;-66
2021/11/07 23:35:01;;;;;;;;;;;7.50;83.60;;;;;;20828731;28;76659;-66
2021/11/07 23:45:04;;;;;;;;;;;7.40;83.90;;;;;;20809704;28;75401;-66
2021/11/07 23:55:06;;;;;;;;;;;7.40;84.60;;;;;;20825084;28;75640;-66
